Time;durP1;ratioP1;P1;durP2;ratioP2;P2;SDS_P1;SDS_P2;PMS_P1;PMS_P2;Temp;Humidity;BMP_temperature;BMP_pressure;BME280_temperature;BME280_humidity;BME280_pressure;Samples;Min_cycle;Max_cycle;Signal;HPM_P1;HPM_P2
2022/07/24 00:01:36;;;;;;;8.38;4.13;;;;;;;;;;5134821;27;20043;-73
2022/07/24 00:04:05;;;;;;;8.73;3.88;;;;;;;;;;5128002;27;20152;-73
2022/07/24 00:06:31;;;;;;;7.90;3.97;;;;;;;;;;5135800;27;20127;-72
2022/07/24 00:08:57;;;;;;;6.28;4.38;;;;;;;;;;5127704;27;20066;-72
2022/07/24 00:11:23;;;;;;;10.95;4.60;;;;;;;;;;5130428;27;20071;-73
2022/07/24 00:13:49;;;;;;;6.82;4.55;;;;;;;;;;5119748;27;20047;-73
2022/07/24 00:16:15;;;;;;;7.75;4.20;;;;;;;;;;5136448;27;20042;-73
2022/07/24 00:18:42;;;;;;;8.23;4.57;;;;;;;;;;5129217;27;20091;-73
2022/07/24 00:21:08;;;;;;;10.10;4.50;;;;;;;;;;5131234;27;20457;-74
2022/07/24 00:23:34;;;;;;;6.45;4.57;;;;;;;;;;5111882;27;20055;-74
2022/07/24 00:26:00;;;;;;;6.07;4.30;;;;;;;;;;5133892;27;20112;-72
2022/07/24 00:28:26;;;;;;;7.22;4.70;;;;;;;;;;5127430;27;20123;-73
2022/07/24 00:30:52;;;;;;;7.10;4.53;;;;;;;;;;5134329;27;20118;-73
2022/07/24 00:33:18;;;;;;;8.18;4.68;;;;;;;;;;5122065;27;20067;-73
2022/07/24 00:35:44;;;;;;;7.40;4.78;;;;;;;;;;5131842;27;20035;-73
2022/07/24 00:38:10;;;;;;;7.63;4.95;;;;;;;;;;5127422;27;20529;-73
2022/07/24 00:40:36;;;;;;;7.18;4.22;;;;;;;;;;5128992;27;20470;-73
2022/07/24 00:43:03;;;;;;;9.82;4.70;;;;;;;;;;5127729;27;20403;-72
2022/07/24 00:45:29;;;;;;;7.88;4.57;;;;;;;;;;5129522;27;20053;-73
2022/07/24 00:47:55;;;;;;;7.53;4.70;;;;;;;;;;5128230;27;20400;-72
2022/07/24 00:50:21;;;;;;;8.05;4.75;;;;;;;;;;5126984;27;20047;-72
2022/07/24 00:52:47;;;;;;;7.47;5.05;;;;;;;;;;5127439;27;20051;-74
2022/07/24 00:55:13;;;;;;;7.55;4.43;;;;;;;;;;5129039;27;20134;-73
2022/07/24 00:57:43;;;;;;;7.15;4.38;;;;;;;;;;5128102;27;20395;-72
2022/07/24 01:00:10;;;;;;;7.03;4.68;;;;;;;;;;5127653;27;20096;-72
2022/07/24 01:02:39;;;;;;;7.05;4.65;;;;;;;;;;5127498;27;20040;-73
2022/07/24 01:05:05;;;;;;;8.00;4.55;;;;;;;;;;5132126;27;20035;-73
2022/07/24 01:07:31;;;;;;;7.65;4.60;;;;;;;;;;5099904;28;20058;-73
2022/07/24 01:09:57;;;;;;;7.22;4.72;;;;;;;;;;5133529;27;20039;-74
2022/07/24 01:12:24;;;;;;;7.32;5.22;;;;;;;;;;5132024;27;20039;-73
2022/07/24 01:14:50;;;;;;;6.82;4.75;;;;;;;;;;5128227;27;20126;-73
2022/07/24 01:17:16;;;;;;;8.13;4.90;;;;;;;;;;5134575;27;20067;-73
2022/07/24 01:19:42;;;;;;;7.07;4.90;;;;;;;;;;5131234;27;20039;-72
2022/07/24 01:22:08;;;;;;;9.88;5.18;;;;;;;;;;5133125;27;20031;-73
2022/07/24 01:24:34;;;;;;;8.70;5.40;;;;;;;;;;5131075;27;20039;-72
2022/07/24 01:27:00;;;;;;;6.75;5.28;;;;;;;;;;5134476;27;20040;-74
2022/07/24 01:29:26;;;;;;;8.35;5.80;;;;;;;;;;5132483;27;20043;-72
2022/07/24 01:31:52;;;;;;;9.45;5.40;;;;;;;;;;5132228;27;20043;-75
2022/07/24 01:34:18;;;;;;;9.82;5.13;;;;;;;;;;5128750;27;20475;-73
2022/07/24 01:36:44;;;;;;;8.27;5.40;;;;;;;;;;5135914;27;20126;-73
2022/07/24 01:39:10;;;;;;;10.00;5.93;;;;;;;;;;5134003;27;20039;-73
2022/07/24 01:41:36;;;;;;;8.05;5.72;;;;;;;;;;5133585;27;20150;-72
2022/07/24 01:44:02;;;;;;;8.20;5.30;;;;;;;;;;5125799;27;20441;-74
2022/07/24 01:46:28;;;;;;;8.93;5.53;;;;;;;;;;5125418;27;20059;-73
2022/07/24 01:48:54;;;;;;;10.48;5.35;;;;;;;;;;5123578;27;20385;-73
2022/07/24 01:51:20;;;;;;;8.10;5.30;;;;;;;;;;5125778;27;20043;-72
2022/07/24 01:53:46;;;;;;;7.88;5.72;;;;;;;;;;5128374;27;20050;-72
2022/07/24 01:56:12;;;;;;;7.78;5.57;;;;;;;;;;5135352;27;20047;-72
2022/07/24 01:58:39;;;;;;;8.85;5.88;;;;;;;;;;5129684;27;20129;-73
2022/07/24 02:01:05;;;;;;;9.68;5.88;;;;;;;;;;5132322;27;20133;-72
2022/07/24 02:03:31;;;;;;;8.30;5.80;;;;;;;;;;5119105;27;20044;-73
2022/07/24 02:05:57;;;;;;;9.75;5.88;;;;;;;;;;5130037;27;20046;-72
2022/07/24 02:08:23;;;;;;;10.82;6.10;;;;;;;;;;5131395;27;20085;-73
2022/07/24 02:10:49;;;;;;;10.23;6.07;;;;;;;;;;5116270;28;20050;-73
2022/07/24 02:13:16;;;;;;;8.02;5.68;;;;;;;;;;5111460;28;20119;-73
2022/07/24 02:15:42;;;;;;;8.48;6.18;;;;;;;;;;5125581;28;20488;-73
2022/07/24 02:18:08;;;;;;;9.73;6.25;;;;;;;;;;5116783;27;20047;-73
2022/07/24 02:20:34;;;;;;;9.10;6.10;;;;;;;;;;5130968;28;20047;-72
2022/07/24 02:22:59;;;;;;;10.77;5.93;;;;;;;;;;5121620;27;20039;-72
2022/07/24 02:25:26;;;;;;;10.60;6.20;;;;;;;;;;5132165;27;20564;-72
2022/07/24 02:27:51;;;;;;;9.95;6.07;;;;;;;;;;5130559;28;20048;-73
2022/07/24 02:30:21;;;;;;;9.93;6.82;;;;;;;;;;5129316;27;20057;-72
2022/07/24 02:32:47;;;;;;;9.10;6.45;;;;;;;;;;5129748;27;20484;-72
2022/07/24 02:35:14;;;;;;;7.88;6.25;;;;;;;;;;5132941;28;20042;-72
2022/07/24 02:37:41;;;;;;;12.90;6.80;;;;;;;;;;5115214;28;20123;-73
2022/07/24 02:40:08;;;;;;;10.02;6.40;;;;;;;;;;5132670;27;20183;-73
2022/07/24 02:42:34;;;;;;;8.40;6.03;;;;;;;;;;5131417;28;20036;-73
2022/07/24 02:45:00;;;;;;;12.52;6.53;;;;;;;;;;5117221;28;20038;-73
2022/07/24 02:47:26;;;;;;;8.70;6.22;;;;;;;;;;5134437;28;20043;-72
2022/07/24 02:49:52;;;;;;;10.13;6.80;;;;;;;;;;5124218;27;21628;-72
2022/07/24 02:52:18;;;;;;;8.38;6.07;;;;;;;;;;5131345;27;20519;-71
2022/07/24 02:54:44;;;;;;;10.43;6.55;;;;;;;;;;5131509;27;20051;-72
2022/07/24 02:57:10;;;;;;;9.73;7.00;;;;;;;;;;5133275;28;20040;-73
2022/07/24 02:59:36;;;;;;;7.93;6.80;;;;;;;;;;5118353;28;20044;-73
2022/07/24 03:02:02;;;;;;;11.07;6.80;;;;;;;;;;5127968;27;20404;-72
2022/07/24 03:04:28;;;;;;;10.38;7.25;;;;;;;;;;5134850;27;20039;-72
2022/07/24 03:06:54;;;;;;;11.77;7.65;;;;;;;;;;5136745;27;20036;-72
2022/07/24 03:09:20;;;;;;;8.95;7.00;;;;;;;;;;5109793;27;20397;-73
2022/07/24 03:11:46;;;;;;;9.38;7.35;;;;;;;;;;5133988;27;20035;-72
2022/07/24 03:14:12;;;;;;;11.50;7.28;;;;;;;;;;5109241;28;20035;-72
2022/07/24 03:16:38;;;;;;;10.88;7.43;;;;;;;;;;5131367;27;20095;-72
2022/07/24 03:19:04;;;;;;;8.63;7.55;;;;;;;;;;5136596;27;20470;-72
2022/07/24 03:21:30;;;;;;;10.82;7.60;;;;;;;;;;5133810;27;20096;-73
2022/07/24 03:23:56;;;;;;;9.45;7.50;;;;;;;;;;5134818;27;20031;-72
2022/07/24 03:26:22;;;;;;;9.98;7.60;;;;;;;;;;5137628;27;20043;-72
2022/07/24 03:28:48;;;;;;;10.20;7.82;;;;;;;;;;5132461;27;20061;-73
2022/07/24 03:31:14;;;;;;;13.18;7.80;;;;;;;;;;5134590;27;20167;-72
2022/07/24 03:33:40;;;;;;;11.55;7.82;;;;;;;;;;5132515;27;20548;-71
2022/07/24 03:36:08;;;;;;;9.45;7.95;;;;;;;;;;5117548;27;20130;-72
2022/07/24 03:38:34;;;;;;;9.30;7.63;;;;;;;;;;5135671;27;20039;-72
2022/07/24 03:41:00;;;;;;;12.27;7.70;;;;;;;;;;5134641;27;20420;-73
2022/07/24 03:43:26;;;;;;;9.98;7.47;;;;;;;;;;5124264;27;20047;-72
2022/07/24 03:45:52;;;;;;;10.45;7.40;;;;;;;;;;5134762;27;20050;-72
2022/07/24 03:48:18;;;;;;;9.50;7.13;;;;;;;;;;5134905;27;20445;-73
2022/07/24 03:50:44;;;;;;;9.57;7.57;;;;;;;;;;5129540;27;20429;-72
2022/07/24 03:53:10;;;;;;;11.35;7.65;;;;;;;;;;5131280;27;20043;-72
2022/07/24 03:55:36;;;;;;;9.85;7.13;;;;;;;;;;5135156;27;20035;-72
2022/07/24 03:58:02;;;;;;;10.43;7.07;;;;;;;;;;5110451;27;20374;-72
2022/07/24 04:00:28;;;;;;;10.38;7.30;;;;;;;;;;5133593;27;20416;-73
2022/07/24 04:02:54;;;;;;;9.10;7.38;;;;;;;;;;5125825;27;20480;-73
2022/07/24 04:05:20;;;;;;;10.57;7.50;;;;;;;;;;5135914;27;20031;-72
2022/07/24 04:07:46;;;;;;;11.07;7.45;;;;;;;;;;5131636;27;20031;-72
2022/07/24 04:10:12;;;;;;;10.10;7.70;;;;;;;;;;5116149;27;20054;-73
2022/07/24 04:12:38;;;;;;;14.13;7.50;;;;;;;;;;5110120;27;20043;-71
2022/07/24 04:15:04;;;;;;;12.20;8.07;;;;;;;;;;5131059;27;20051;-72
2022/07/24 04:17:30;;;;;;;9.80;7.18;;;;;;;;;;5125104;27;20519;-72
2022/07/24 04:19:56;;;;;;;12.55;7.65;;;;;;;;;;5117397;27;20043;-73
2022/07/24 04:22:22;;;;;;;10.75;7.43;;;;;;;;;;5132437;27;20039;-72
2022/07/24 04:24:48;;;;;;;10.00;7.55;;;;;;;;;;5133249;27;20130;-72
2022/07/24 04:27:14;;;;;;;10.23;7.30;;;;;;;;;;5132577;27;20435;-72
2022/07/24 04:29:40;;;;;;;15.30;6.88;;;;;;;;;;5132527;27;20036;-73
2022/07/24 04:32:06;;;;;;;12.43;7.75;;;;;;;;;;5121747;27;20077;-72
2022/07/24 04:34:32;;;;;;;10.07;7.68;;;;;;;;;;5133173;27;20373;-72
2022/07/24 04:36:58;;;;;;;11.35;7.30;;;;;;;;;;5134716;27;20047;-72
2022/07/24 04:39:24;;;;;;;11.25;6.90;;;;;;;;;;5134084;27;20051;-73
2022/07/24 04:41:50;;;;;;;11.48;7.38;;;;;;;;;;5129590;27;20374;-72
2022/07/24 04:44:16;;;;;;;10.77;7.10;;;;;;;;;;5133400;27;20046;-74
2022/07/24 04:46:42;;;;;;;11.43;7.55;;;;;;;;;;5133692;27;20126;-72
2022/07/24 04:49:08;;;;;;;12.00;7.38;;;;;;;;;;5134817;27;20044;-73
2022/07/24 04:51:34;;;;;;;12.38;7.38;;;;;;;;;;5130336;27;20044;-72
2022/07/24 04:54:00;;;;;;;12.70;6.80;;;;;;;;;;5129994;27;20035;-73
2022/07/24 04:56:30;;;;;;;9.50;7.68;;;;;;;;;;5134510;27;20660;-73
2022/07/24 04:58:56;;;;;;;10.27;6.97;;;;;;;;;;5127136;27;20046;-72
2022/07/24 05:01:22;;;;;;;9.77;7.15;;;;;;;;;;5127656;27;20131;-72
2022/07/24 05:03:48;;;;;;;9.73;6.95;;;;;;;;;;5129316;27;20070;-73
2022/07/24 05:06:14;;;;;;;10.07;6.75;;;;;;;;;;5115380;27;20043;-73
2022/07/24 05:08:40;;;;;;;9.93;6.68;;;;;;;;;;5132881;27;20046;-72
2022/07/24 05:11:06;;;;;;;8.25;6.72;;;;;;;;;;5132209;27;20477;-73
2022/07/24 05:13:32;;;;;;;8.40;6.78;;;;;;;;;;5133008;27;20039;-72
2022/07/24 05:15:58;;;;;;;9.88;6.63;;;;;;;;;;5122236;27;20043;-72
2022/07/24 05:18:24;;;;;;;9.02;6.78;;;;;;;;;;5134388;27;20404;-73
2022/07/24 05:20:50;;;;;;;9.13;6.32;;;;;;;;;;5133104;27;20092;-73
2022/07/24 05:23:16;;;;;;;12.32;6.78;;;;;;;;;;5118811;27;20079;-73
2022/07/24 05:25:42;;;;;;;10.73;6.90;;;;;;;;;;5127403;27;20131;-72
2022/07/24 05:28:09;;;;;;;11.40;7.05;;;;;;;;;;5114431;27;20043;-73
2022/07/24 05:30:35;;;;;;;9.63;6.63;;;;;;;;;;5128675;27;20043;-73
2022/07/24 05:33:01;;;;;;;9.63;7.25;;;;;;;;;;5122729;27;20630;-72
2022/07/24 05:35:27;;;;;;;12.02;7.05;;;;;;;;;;5132906;27;20054;-72
2022/07/24 05:37:53;;;;;;;9.05;6.57;;;;;;;;;;5133213;27;20043;-72
2022/07/24 05:40:19;;;;;;;8.05;7.25;;;;;;;;;;5123630;27;20434;-73
2022/07/24 05:42:45;;;;;;;9.30;6.95;;;;;;;;;;5118733;27;20047;-73
2022/07/24 05:45:11;;;;;;;8.57;6.97;;;;;;;;;;5131452;27;20042;-73
2022/07/24 05:47:41;;;;;;;9.20;6.88;;;;;;;;;;5128520;27;20473;-73
2022/07/24 05:50:08;;;;;;;8.00;6.57;;;;;;;;;;5131398;27;20059;-73
2022/07/24 05:52:34;;;;;;;8.00;6.20;;;;;;;;;;5129973;27;20043;-73
2022/07/24 05:55:00;;;;;;;9.27;5.78;;;;;;;;;;5111435;27;20047;-73
2022/07/24 05:57:26;;;;;;;8.70;5.80;;;;;;;;;;5130756;27;20442;-73
2022/07/24 05:59:52;;;;;;;9.02;5.75;;;;;;;;;;5133753;27;20031;-73
2022/07/24 06:02:18;;;;;;;7.20;5.55;;;;;;;;;;5129523;27;20035;-72
2022/07/24 06:04:44;;;;;;;8.35;5.38;;;;;;;;;;5124913;27;20031;-73
2022/07/24 06:07:10;;;;;;;8.52;5.47;;;;;;;;;;5132154;27;20127;-72
2022/07/24 06:09:37;;;;;;;7.25;5.25;;;;;;;;;;5126307;27;20047;-73
2022/07/24 06:12:03;;;;;;;9.70;5.68;;;;;;;;;;5128994;27;20043;-71
2022/07/24 06:14:30;;;;;;;6.80;5.22;;;;;;;;;;5125232;28;20130;-72
2022/07/24 06:16:56;;;;;;;7.70;5.70;;;;;;;;;;5127536;28;20062;-74
2022/07/24 06:19:22;;;;;;;9.10;5.18;;;;;;;;;;5114590;28;20035;-74
2022/07/24 06:21:48;;;;;;;8.75;5.20;;;;;;;;;;5132476;28;20035;-74
2022/07/24 06:24:14;;;;;;;7.68;4.93;;;;;;;;;;5131927;27;20563;-73
2022/07/24 06:26:40;;;;;;;9.50;5.18;;;;;;;;;;5129491;27;20071;-73
2022/07/24 06:29:06;;;;;;;8.18;5.57;;;;;;;;;;5131686;27;20045;-72
2022/07/24 06:31:32;;;;;;;8.90;4.90;;;;;;;;;;5133333;28;20114;-74
2022/07/24 06:33:58;;;;;;;7.20;5.30;;;;;;;;;;5116958;28;20051;-74
2022/07/24 06:36:24;;;;;;;8.05;5.35;;;;;;;;;;5131623;28;20112;-73
2022/07/24 06:38:51;;;;;;;6.60;4.90;;;;;;;;;;5130385;27;20051;-74
2022/07/24 06:41:17;;;;;;;8.50;5.80;;;;;;;;;;5136004;27;20047;-73
2022/07/24 06:43:43;;;;;;;9.65;5.43;;;;;;;;;;5122594;27;20039;-72
2022/07/24 06:46:09;;;;;;;11.50;6.00;;;;;;;;;;5126290;27;20051;-72
2022/07/24 06:48:35;;;;;;;7.38;5.15;;;;;;;;;;5126196;27;20058;-72
2022/07/24 06:51:01;;;;;;;9.82;6.50;;;;;;;;;;5123484;27;20073;-72
2022/07/24 06:53:27;;;;;;;7.82;5.85;;;;;;;;;;5117676;27;20039;-71
2022/07/24 06:55:54;;;;;;;10.90;6.90;;;;;;;;;;5120737;27;20039;-72
2022/07/24 06:58:21;;;;;;;9.55;6.00;;;;;;;;;;5133054;27;20085;-72
2022/07/24 07:00:48;;;;;;;8.57;6.40;;;;;;;;;;5126314;27;20511;-72
2022/07/24 07:03:14;;;;;;;9.45;6.72;;;;;;;;;;5123210;27;20047;-71
2022/07/24 07:05:41;;;;;;;10.80;7.72;;;;;;;;;;5129320;27;20048;-72
2022/07/24 07:08:07;;;;;;;11.63;7.30;;;;;;;;;;5124186;27;20090;-71
2022/07/24 07:10:33;;;;;;;11.25;7.95;;;;;;;;;;5128406;27;20052;-71
2022/07/24 07:12:59;;;;;;;10.85;7.90;;;;;;;;;;5120146;27;20062;-73
2022/07/24 07:15:26;;;;;;;11.70;7.57;;;;;;;;;;5134979;27;20099;-73
2022/07/24 07:17:52;;;;;;;12.60;7.82;;;;;;;;;;5128059;27;20408;-72
2022/07/24 07:20:18;;;;;;;11.43;8.05;;;;;;;;;;5133632;27;20042;-74
2022/07/24 07:22:45;;;;;;;11.45;8.35;;;;;;;;;;5134361;27;20039;-72
2022/07/24 07:25:11;;;;;;;10.52;8.35;;;;;;;;;;5137135;27;20054;-71
2022/07/24 07:27:39;;;;;;;13.85;8.63;;;;;;;;;;5128450;27;20047;-73
2022/07/24 07:30:05;;;;;;;12.18;8.57;;;;;;;;;;5131727;27;20044;-72
2022/07/24 07:32:31;;;;;;;12.05;8.70;;;;;;;;;;5135144;27;20043;-74
2022/07/24 07:34:57;;;;;;;12.15;9.40;;;;;;;;;;5126999;27;20113;-73
2022/07/24 07:37:23;;;;;;;11.02;9.55;;;;;;;;;;5128083;27;20046;-71
2022/07/24 07:39:49;;;;;;;11.13;9.82;;;;;;;;;;5131548;27;20043;-73
2022/07/24 07:42:15;;;;;;;14.75;10.77;;;;;;;;;;5120524;27;20067;-72
2022/07/24 07:44:41;;;;;;;11.27;10.07;;;;;;;;;;5120037;27;20481;-72
2022/07/24 07:47:08;;;;;;;14.45;10.07;;;;;;;;;;5128110;27;20055;-73
2022/07/24 07:49:34;;;;;;;11.68;9.23;;;;;;;;;;5120458;27;20052;-71
2022/07/24 07:52:00;;;;;;;14.43;10.55;;;;;;;;;;5099114;27;20071;-72
2022/07/24 07:54:26;;;;;;;15.27;10.32;;;;;;;;;;5126164;27;20481;-72
2022/07/24 07:56:52;;;;;;;12.98;10.52;;;;;;;;;;5126769;27;20045;-72
2022/07/24 07:59:18;;;;;;;10.80;9.75;;;;;;;;;;5135100;27;20070;-72
2022/07/24 08:01:44;;;;;;;13.27;10.63;;;;;;;;;;5127645;27;20063;-72
2022/07/24 08:04:10;;;;;;;12.20;10.93;;;;;;;;;;5118710;27;20497;-72
2022/07/24 08:06:36;;;;;;;12.88;9.88;;;;;;;;;;5130491;27;20049;-73
2022/07/24 08:09:02;;;;;;;15.13;11.00;;;;;;;;;;5136567;27;20122;-71
2022/07/24 08:11:29;;;;;;;15.18;10.57;;;;;;;;;;5134368;27;20040;-72
2022/07/24 08:13:55;;;;;;;15.43;10.95;;;;;;;;;;5133354;27;20126;-72
2022/07/24 08:16:21;;;;;;;17.15;11.70;;;;;;;;;;5131436;27;20044;-71
2022/07/24 08:18:47;;;;;;;15.70;11.38;;;;;;;;;;5133859;27;20047;-73
2022/07/24 08:21:15;;;;;;;17.88;12.35;;;;;;;;;;5136056;27;20047;-72
2022/07/24 08:23:41;;;;;;;15.82;11.05;;;;;;;;;;5129181;27;20062;-72
2022/07/24 08:26:07;;;;;;;13.25;10.98;;;;;;;;;;5117318;27;20046;-72
2022/07/24 08:28:33;;;;;;;17.88;12.93;;;;;;;;;;5130444;27;20412;-72
2022/07/24 08:30:59;;;;;;;14.80;12.07;;;;;;;;;;5129528;27;20050;-71
2022/07/24 08:33:25;;;;;;;16.33;11.93;;;;;;;;;;5127965;27;20048;-72
2022/07/24 08:35:51;;;;;;;19.13;11.15;;;;;;;;;;5111458;28;20108;-73
2022/07/24 08:38:17;;;;;;;16.33;10.80;;;;;;;;;;5125447;27;20044;-72
2022/07/24 08:40:43;;;;;;;16.83;10.15;;;;;;;;;;5133376;27;20412;-72
2022/07/24 08:43:09;;;;;;;12.95;8.77;;;;;;;;;;5120212;27;20047;-72
2022/07/24 08:45:40;;;;;;;13.93;9.20;;;;;;;;;;5129575;27;20558;-72
2022/07/24 08:48:09;;;;;;;9.55;7.78;;;;;;;;;;5129803;27;20558;-73
2022/07/24 08:50:37;;;;;;;13.93;7.72;;;;;;;;;;5125378;27;20051;-73
2022/07/24 08:53:04;;;;;;;10.73;7.50;;;;;;;;;;5120993;27;20054;-72
2022/07/24 08:55:30;;;;;;;12.23;8.25;;;;;;;;;;5133010;27;20070;-73
2022/07/24 08:57:57;;;;;;;10.02;7.55;;;;;;;;;;5129031;27;20043;-73
2022/07/24 09:00:23;;;;;;;10.32;7.25;;;;;;;;;;5129337;27;20039;-71
2022/07/24 09:02:49;;;;;;;12.57;7.15;;;;;;;;;;5123707;27;20055;-73
2022/07/24 09:05:16;;;;;;;10.68;6.90;;;;;;;;;;5087895;27;20043;-71
2022/07/24 09:07:42;;;;;;;9.88;5.53;;;;;;;;;;5128454;27;20039;-71
2022/07/24 09:10:10;;;;;;;9.50;4.53;;;;;;;;;;5129911;27;20043;-72
2022/07/24 09:12:41;;;;;;;7.40;4.22;;;;;;;;;;5134635;27;20051;-72
2022/07/24 09:15:17;;;;;;;7.00;4.30;;;;;;;;;;5128065;27;20381;-73
2022/07/24 09:17:49;;;;;;;5.45;3.50;;;;;;;;;;5119000;27;20050;-72
2022/07/24 09:20:16;;;;;;;6.55;3.85;;;;;;;;;;5124454;27;20047;-74
2022/07/24 09:22:42;;;;;;;6.85;3.60;;;;;;;;;;5124032;27;20047;-73
2022/07/24 09:25:12;;;;;;;6.35;3.47;;;;;;;;;;5119255;27;20045;-73
2022/07/24 09:27:40;;;;;;;7.57;3.90;;;;;;;;;;5126330;27;20575;-71
2022/07/24 09:30:06;;;;;;;6.80;4.00;;;;;;;;;;5123133;27;20099;-72
2022/07/24 09:32:33;;;;;;;6.40;3.70;;;;;;;;;;5128892;27;20071;-72
2022/07/24 09:34:59;;;;;;;5.85;3.42;;;;;;;;;;5128530;27;20064;-73
2022/07/24 09:37:27;;;;;;;6.25;3.30;;;;;;;;;;5122767;27;20042;-72
2022/07/24 09:39:53;;;;;;;5.70;2.90;;;;;;;;;;5129865;27;20053;-73
2022/07/24 09:42:29;;;;;;;6.25;3.13;;;;;;;;;;5126765;27;20480;-73
2022/07/24 09:44:58;;;;;;;5.43;2.90;;;;;;;;;;5105732;28;20043;-74
2022/07/24 09:47:25;;;;;;;5.95;2.83;;;;;;;;;;5122464;27;20108;-72
2022/07/24 09:49:54;;;;;;;7.28;3.13;;;;;;;;;;5131176;27;20055;-73
2022/07/24 09:52:21;;;;;;;5.22;2.75;;;;;;;;;;5128890;27;20050;-72
2022/07/24 09:54:51;;;;;;;6.00;2.70;;;;;;;;;;5099897;28;20058;-73
2022/07/24 09:57:20;;;;;;;4.57;2.47;;;;;;;;;;5121253;27;20398;-72
2022/07/24 09:59:50;;;;;;;5.70;2.83;;;;;;;;;;5118934;27;20514;-72
2022/07/24 10:02:17;;;;;;;4.53;2.60;;;;;;;;;;5127377;27;20039;-72
2022/07/24 10:04:44;;;;;;;6.80;2.75;;;;;;;;;;5121380;27;20408;-74
2022/07/24 10:07:12;;;;;;;4.75;2.95;;;;;;;;;;5105669;28;20100;-72
2022/07/24 10:09:41;;;;;;;5.22;2.90;;;;;;;;;;5122150;27;20720;-73
2022/07/24 10:12:11;;;;;;;5.20;2.60;;;;;;;;;;5123288;28;20048;-72
2022/07/24 10:14:39;;;;;;;5.80;2.25;;;;;;;;;;5100969;28;20035;-71
2022/07/24 10:17:06;;;;;;;6.22;2.55;;;;;;;;;;5124356;28;20428;-72
2022/07/24 10:19:38;;;;;;;4.90;2.63;;;;;;;;;;5126038;28;20404;-73
2022/07/24 10:22:09;;;;;;;6.50;2.50;;;;;;;;;;5121150;28;20412;-72
2022/07/24 10:24:35;;;;;;;;;;;;;;;;;;5124932;28;20462;-73
2022/07/24 10:27:03;;;;;;;4.47;2.30;;;;;;;;;;5122940;28;20363;-72
2022/07/24 10:29:29;;;;;;;5.35;2.50;;;;;;;;;;5120360;28;20048;-72
2022/07/24 10:31:58;;;;;;;5.55;2.70;;;;;;;;;;5119430;28;20423;-73
2022/07/24 10:34:24;;;;;;;4.72;2.60;;;;;;;;;;5120107;28;20507;-73
2022/07/24 10:36:56;;;;;;;4.35;2.53;;;;;;;;;;5126539;28;20122;-72
2022/07/24 10:39:29;;;;;;;4.57;2.67;;;;;;;;;;5129377;28;20282;-73
2022/07/24 10:42:03;;;;;;;4.65;2.50;;;;;;;;;;5116510;28;20043;-73
2022/07/24 10:44:29;;;;;;;5.43;2.75;;;;;;;;;;5105191;28;20128;-72
2022/07/24 10:47:03;;;;;;;4.30;2.50;;;;;;;;;;5116392;28;20062;-71
2022/07/24 10:49:36;;;;;;;10.82;3.55;;;;;;;;;;5133715;28;20054;-72
2022/07/24 10:52:02;;;;;;;5.18;2.80;;;;;;;;;;5126471;28;20097;-72
2022/07/24 10:54:28;;;;;;;4.82;2.92;;;;;;;;;;5122102;28;20047;-73
2022/07/24 10:56:54;;;;;;;8.30;2.80;;;;;;;;;;5113842;28;20083;-72
2022/07/24 10:59:34;;;;;;;5.32;2.85;;;;;;;;;;5118563;28;20051;-74
2022/07/24 11:02:20;;;;;;;5.50;2.83;;;;;;;;;;5126073;27;20515;-74
2022/07/24 11:04:46;;;;;;;6.22;2.88;;;;;;;;;;5130225;28;20036;-73
2022/07/24 11:07:13;;;;;;;7.80;2.95;;;;;;;;;;5133100;28;20047;-73
2022/07/24 11:09:55;;;;;;;5.05;2.53;;;;;;;;;;5132256;28;20048;-73
2022/07/24 11:12:32;;;;;;;5.22;2.40;;;;;;;;;;5099750;28;20048;-73
2022/07/24 11:15:53;;;;;;;4.65;2.60;;;;;;;;;;5105041;28;20083;-72
2022/07/24 11:17:46;;;;;;;7.03;2.50;;;;;;;;;;5120608;28;20078;-72
2022/07/24 11:20:16;;;;;;;4.30;2.30;;;;;;;;;;5127515;28;20046;-71
2022/07/24 11:22:47;;;;;;;8.48;2.50;;;;;;;;;;5134325;28;20047;-72
2022/07/24 11:25:21;;;;;;;6.20;2.33;;;;;;;;;;5133447;27;20130;-71
2022/07/24 11:27:47;;;;;;;4.38;2.22;;;;;;;;;;5119739;27;20043;-74
2022/07/24 11:30:13;;;;;;;4.50;2.20;;;;;;;;;;5128658;27;20088;-71
2022/07/24 11:32:40;;;;;;;6.32;2.17;;;;;;;;;;5130888;27;20048;-72
2022/07/24 11:35:08;;;;;;;9.00;2.30;;;;;;;;;;5121973;27;20051;-72
2022/07/24 11:37:34;;;;;;;5.72;2.40;;;;;;;;;;5127783;27;20040;-73
2022/07/24 11:40:00;;;;;;;6.63;2.67;;;;;;;;;;5117878;27;20051;-72
2022/07/24 11:42:26;;;;;;;4.78;2.25;;;;;;;;;;5126278;27;20046;-73
2022/07/24 11:44:53;;;;;;;5.72;2.30;;;;;;;;;;5128924;27;20050;-74
2022/07/24 11:47:20;;;;;;;4.78;2.40;;;;;;;;;;5103054;28;20594;-73
2022/07/24 11:49:48;;;;;;;5.63;2.20;;;;;;;;;;5118446;27;20070;-73
2022/07/24 11:52:21;;;;;;;4.80;2.50;;;;;;;;;;5130971;27;20039;-73
2022/07/24 11:54:49;;;;;;;5.22;2.35;;;;;;;;;;5128333;27;20039;-73
2022/07/24 11:57:22;;;;;;;5.63;2.22;;;;;;;;;;5123051;27;20051;-73
2022/07/24 11:59:49;;;;;;;5.78;2.28;;;;;;;;;;5116148;28;20489;-73
2022/07/24 12:02:15;;;;;;;5.50;2.50;;;;;;;;;;5125989;27;20366;-72
2022/07/24 12:04:42;;;;;;;6.63;2.65;;;;;;;;;;5125009;27;20050;-73
2022/07/24 12:07:09;;;;;;;4.10;2.20;;;;;;;;;;5130442;27;20048;-71
2022/07/24 12:09:45;;;;;;;4.70;2.40;;;;;;;;;;5122079;27;20043;-73
2022/07/24 12:12:20;;;;;;;4.43;2.53;;;;;;;;;;5116469;27;20489;-72
2022/07/24 12:14:47;;;;;;;5.13;2.20;;;;;;;;;;5123705;27;20038;-73
2022/07/24 12:17:13;;;;;;;5.30;2.58;;;;;;;;;;5122323;27;20051;-72
2022/07/24 12:19:39;;;;;;;4.82;2.30;;;;;;;;;;5123395;27;20511;-73
2022/07/24 12:22:05;;;;;;;6.22;2.55;;;;;;;;;;5131351;27;20062;-72
2022/07/24 12:24:31;;;;;;;4.78;2.20;;;;;;;;;;5106912;27;20031;-73
2022/07/24 12:26:59;;;;;;;4.85;2.50;;;;;;;;;;5123572;27;20043;-73
2022/07/24 12:29:26;;;;;;;5.78;2.30;;;;;;;;;;5134012;27;20047;-72
2022/07/24 12:32:15;;;;;;;4.00;2.20;;;;;;;;;;5123543;27;20039;-73
2022/07/24 12:34:42;;;;;;;4.70;2.50;;;;;;;;;;5110342;28;20532;-72
2022/07/24 12:37:15;;;;;;;3.50;2.00;;;;;;;;;;5126854;27;20063;-71
2022/07/24 12:39:52;;;;;;;3.35;1.85;;;;;;;;;;5133402;27;20092;-73
2022/07/24 12:42:19;;;;;;;5.20;2.25;;;;;;;;;;5129739;27;20050;-72
2022/07/24 12:44:46;;;;;;;5.68;2.38;;;;;;;;;;5115182;27;20040;-73
2022/07/24 12:47:12;;;;;;;3.88;2.25;;;;;;;;;;5123756;27;20509;-72
2022/07/24 12:49:42;;;;;;;5.07;2.47;;;;;;;;;;5114723;28;20051;-73
2022/07/24 12:52:19;;;;;;;6.75;2.50;;;;;;;;;;5115571;28;20046;-72
2022/07/24 12:54:47;;;;;;;6.38;2.58;;;;;;;;;;5129147;27;20043;-72
2022/07/24 12:57:13;;;;;;;5.47;2.70;;;;;;;;;;5133090;27;20043;-72
2022/07/24 12:59:40;;;;;;;4.88;2.50;;;;;;;;;;5126881;27;20700;-73
2022/07/24 13:02:11;;;;;;;4.93;2.40;;;;;;;;;;5129242;27;20051;-73
2022/07/24 13:04:57;;;;;;;4.90;2.70;;;;;;;;;;5130304;27;20048;-73
2022/07/24 13:07:25;;;;;;;4.55;2.28;;;;;;;;;;5117252;27;20060;-72
2022/07/24 13:09:51;;;;;;;5.03;2.50;;;;;;;;;;5123416;27;20066;-71
2022/07/24 13:12:18;;;;;;;4.28;2.33;;;;;;;;;;5124863;27;20051;-72
2022/07/24 13:14:44;;;;;;;4.43;2.38;;;;;;;;;;5126561;27;20048;-72
2022/07/24 13:17:10;;;;;;;6.10;3.13;;;;;;;;;;5119094;27;20068;-73
2022/07/24 13:19:37;;;;;;;4.68;2.50;;;;;;;;;;5125096;27;20081;-71
2022/07/24 13:22:03;;;;;;;6.72;2.55;;;;;;;;;;5126285;27;20036;-72
2022/07/24 13:24:29;;;;;;;5.40;2.80;;;;;;;;;;5129396;27;20043;-71
2022/07/24 13:26:56;;;;;;;5.68;2.50;;;;;;;;;;5121842;27;20501;-71
2022/07/24 13:29:24;;;;;;;4.88;2.53;;;;;;;;;;5129852;27;20096;-72
2022/07/24 13:31:50;;;;;;;5.00;2.45;;;;;;;;;;5131721;27;20043;-71
2022/07/24 13:34:16;;;;;;;5.07;2.65;;;;;;;;;;5132969;27;20050;-72
2022/07/24 13:36:43;;;;;;;6.57;2.58;;;;;;;;;;5124142;27;20039;-71
2022/07/24 13:39:09;;;;;;;4.93;2.70;;;;;;;;;;5108718;27;20070;-72
2022/07/24 13:41:35;;;;;;;6.57;2.53;;;;;;;;;;5122529;27;20479;-72
2022/07/24 13:44:02;;;;;;;5.43;2.42;;;;;;;;;;5122078;27;20039;-72
2022/07/24 13:46:29;;;;;;;7.15;2.80;;;;;;;;;;5119522;27;20053;-72
2022/07/24 13:48:55;;;;;;;4.82;2.25;;;;;;;;;;5113482;28;20105;-71
2022/07/24 13:51:21;;;;;;;5.78;2.40;;;;;;;;;;5120974;27;20075;-71
2022/07/24 13:53:47;;;;;;;5.72;2.70;;;;;;;;;;5131338;27;20492;-72
2022/07/24 13:56:14;;;;;;;5.03;2.50;;;;;;;;;;5123648;27;20039;-72
2022/07/24 13:58:42;;;;;;;4.72;2.60;;;;;;;;;;5123745;27;20049;-71
2022/07/24 14:01:08;;;;;;;6.20;2.75;;;;;;;;;;5126351;27;20065;-73
2022/07/24 14:03:34;;;;;;;5.25;2.70;;;;;;;;;;5130504;27;20051;-72
2022/07/24 14:06:01;;;;;;;5.53;2.47;;;;;;;;;;5126625;27;20389;-71
2022/07/24 14:08:28;;;;;;;4.50;2.70;;;;;;;;;;5130797;27;20046;-72
2022/07/24 14:10:54;;;;;;;4.72;2.80;;;;;;;;;;5132909;27;20047;-73
2022/07/24 14:13:20;;;;;;;5.15;2.60;;;;;;;;;;5122260;28;20043;-72
2022/07/24 14:15:46;;;;;;;5.68;2.67;;;;;;;;;;5130625;28;20121;-72
2022/07/24 14:18:13;;;;;;;3.85;2.25;;;;;;;;;;5128003;28;20537;-72
2022/07/24 14:20:39;;;;;;;6.40;2.58;;;;;;;;;;5133098;28;20416;-72
2022/07/24 14:23:05;;;;;;;4.40;2.30;;;;;;;;;;5123917;28;20044;-71
2022/07/24 14:25:31;;;;;;;8.93;2.42;;;;;;;;;;5125893;28;20124;-72
2022/07/24 14:27:57;;;;;;;5.47;2.60;;;;;;;;;;5127692;28;20509;-72
2022/07/24 14:30:24;;;;;;;4.85;2.53;;;;;;;;;;5124608;28;20409;-72
2022/07/24 14:32:50;;;;;;;4.82;2.20;;;;;;;;;;5108321;28;20043;-72
2022/07/24 14:35:16;;;;;;;4.88;2.50;;;;;;;;;;5125001;28;20047;-71
2022/07/24 14:37:42;;;;;;;5.78;2.28;;;;;;;;;;5122028;28;20043;-72